Meteorological Aerodrome Report (METAR)

METAR

METAR for:NVSC (Vanua Lava/Sola Airport)
Text:NVSC 250300Z AUTO 03006KT //// // NCD 27/22 Q1013 RMK NIL
Temperature: 27.0°C ( 81°F)
Dewpoint: 22.0°C ( 72°F) [RH = 74%]
Pressure (altimeter):29.91 inches Hg (1013.0 mb)
Winds:from the NNE (30 degrees) at 7 MPH (6 knots; 3.1 m/s)
Ceiling:at least 12,000 feet AGL
Clouds:sky clear below 12,000 feet AGL

METAR

METAR for:NVSG (Ambae/Longana Airport)
Text:NVSG 250300Z AUTO 10005KT //// // NCD 25/21 Q1015 RMK NIL
Temperature: 25.0°C ( 77°F)
Dewpoint: 21.0°C ( 70°F) [RH = 79%]
Pressure (altimeter):29.97 inches Hg (1015.0 mb)
Winds:from the E (100 degrees) at 6 MPH (5 knots; 2.6 m/s)
Ceiling:at least 12,000 feet AGL
Clouds:sky clear below 12,000 feet AGL

METAR

METAR for:NVSS (Santo/Pekoa International Airport)
Text:NVSS 250300Z 14013KT 9999 SCT020 OVC110 25/20 Q1013 RMK NIL
Temperature: 25.0°C ( 77°F)
Dewpoint: 20.0°C ( 68°F) [RH = 74%]
Pressure (altimeter):29.91 inches Hg (1013.0 mb)
Winds:from the SE (140 degrees) at 15 MPH (13 knots; 6.7 m/s)
Visibility:6 or more sm (10+ km)
Ceiling:11000 feet AGL
Clouds: scattered clouds at 2000 feet AGL, overcast cloud deck at 11000 feet AGL

METAR

METAR for:NVSL (Malekula/Lamap Airport)
Text:NVSL 250300Z 16010KT 9999 BKN025 25/19 Q1013 RMK NIL
Temperature: 25.0°C ( 77°F)
Dewpoint: 19.0°C ( 66°F) [RH = 69%]
Pressure (altimeter):29.91 inches Hg (1013.0 mb)
Winds:from the SSE (160 degrees) at 12 MPH (10 knots; 5.1 m/s)
Visibility:6 or more sm (10+ km)
Ceiling:2500 feet AGL
Clouds: broken clouds at 2500 feet AGL

METAR

METAR for:NVSP (Malekula/Norsup Airport) (Norsup Arpt, --, NV)
Text:No data found

METAR

METAR for:NVVV (Efate/Bauerfield International Airport)
Text:NVVV 250300Z 13009KT 9999 SCT020 BKN120 24/17 Q1015 RMK NIL
Temperature: 24.0°C ( 75°F)
Dewpoint: 17.0°C ( 63°F) [RH = 65%]
Pressure (altimeter):29.97 inches Hg (1015.0 mb)
Winds:from the SE (130 degrees) at 10 MPH (9 knots; 4.6 m/s)
Visibility:6 or more sm (10+ km)
Ceiling:12000 feet AGL
Clouds: scattered clouds at 2000 feet AGL, broken clouds at 12000 feet AGL

METAR

METAR for:NVVW (Tanna/WhiteGrass International Airport)
Text:NVVW 250300Z 15017KT 9999 FEW025 SCT300 25/19 Q1016 RMK NIL
Temperature: 25.0°C ( 77°F)
Dewpoint: 19.0°C ( 66°F) [RH = 69%]
Pressure (altimeter):30.00 inches Hg (1016.0 mb)
Winds:from the SSE (150 degrees) at 20 MPH (17 knots; 8.7 m/s)
Visibility:6 or more sm (10+ km)
Ceiling:at least 12,000 feet AGL
Clouds: few clouds at 2500 feet AGL, scattered clouds at 30000 feet AGL

METAR

METAR for:NVVA (Aneityum/Anelcahuat Airport)
Text:NVVA 250300Z 13004KT 9999 SCT020 25/18 Q1017 RMK NIL
Temperature: 25.0°C ( 77°F)
Dewpoint: 18.0°C ( 64°F) [RH = 65%]
Pressure (altimeter):30.03 inches Hg (1017.0 mb)
Winds:from the SE (130 degrees) at 5 MPH (4 knots; 2.1 m/s)
Visibility:6 or more sm (10+ km)
Ceiling:at least 12,000 feet AGL
Clouds: scattered clouds at 2000 feet AGL

METAR

ADDS METAR Data INFO
IDs: Format: Raw Decoded Include TAF

Data at: 0350 UTC 25 Jun 2018

NVSC 250300Z AUTO 03006KT //// // NCD 27/22 Q1013 RMK NIL
NVSG 250300Z AUTO 10005KT //// // NCD 25/21 Q1015 RMK NIL
NVSS 250300Z 14013KT 9999 SCT020 OVC110 25/20 Q1013 RMK NIL
NVSL 250300Z 16010KT 9999 BKN025 25/19 Q1013 RMK NIL
No METAR found for NVSP
NVVV 250300Z 13009KT 9999 SCT020 BKN120 24/17 Q1015 RMK NIL
NVVW 250300Z 15017KT 9999 FEW025 SCT300 25/19 Q1016 RMK NIL
NVVA 250300Z 13004KT 9999 SCT020 25/18 Q1017 RMK NIL